Time;durP1;ratioP1;P1;durP2;ratioP2;P2;SDS_P1;SDS_P2;PMS_P1;PMS_P2;Temp;Humidity;BMP_temperature;BMP_pressure;BME280_temperature;BME280_humidity;BME280_pressure;Samples;Min_cycle;Max_cycle;Signal;HPM_P1;HPM_P2
2023/08/22 00:00:31;;;;;;;6.55;5.95;;;32.10;99.90;;;;;;4974235;28;20034;-56
2023/08/22 00:02:58;;;;;;;6.93;5.50;;;32.00;99.90;;;;;;4974127;28;20041;-56
2023/08/22 00:05:24;;;;;;;6.97;6.25;;;32.00;99.90;;;;;;4974642;28;20035;-55
2023/08/22 00:07:51;;;;;;;6.97;5.80;;;32.00;99.90;;;;;;4974713;28;20034;-56
2023/08/22 00:10:17;;;;;;;6.80;6.15;;;32.00;99.90;;;;;;4974491;28;20035;-55
2023/08/22 00:12:44;;;;;;;7.33;5.77;;;32.00;99.90;;;;;;4974530;28;20077;-55
2023/08/22 00:15:12;;;;;;;6.72;6.03;;;32.00;99.90;;;;;;4974412;28;20022;-55
2023/08/22 00:17:39;;;;;;;7.20;6.50;;;32.00;99.90;;;;;;4974368;28;20045;-56
2023/08/22 00:20:07;;;;;;;6.38;5.78;;;32.00;99.90;;;;;;4974384;28;20038;-55
2023/08/22 00:22:34;;;;;;;7.03;5.82;;;32.00;99.90;;;;;;4974272;28;20057;-55
2023/08/22 00:25:00;;;;;;;6.78;6.07;;;32.00;99.90;;;;;;4974211;28;20431;-55
2023/08/22 00:27:27;;;;;;;8.43;6.13;;;32.00;99.90;;;;;;4974177;28;20113;-55
2023/08/22 00:29:53;;;;;;;5.85;5.25;;;32.00;99.90;;;;;;4974374;28;20027;-56
2023/08/22 00:32:18;;;;;;;6.30;5.70;;;32.00;99.90;;;;;;4974129;28;20090;-55
2023/08/22 00:34:44;;;;;;;6.93;5.38;;;32.00;99.90;;;;;;4974001;28;20030;-55
2023/08/22 00:37:10;;;;;;;7.65;5.68;;;32.00;99.90;;;;;;4973992;28;20106;-56
2023/08/22 00:39:36;;;;;;;6.13;5.45;;;32.00;99.90;;;;;;4974285;28;20052;-56
2023/08/22 00:42:01;;;;;;;6.35;5.70;;;32.00;99.90;;;;;;4973975;28;20035;-56
2023/08/22 00:44:27;;;;;;;6.15;5.53;;;32.00;99.90;;;;;;4973792;28;20117;-56
2023/08/22 00:46:53;;;;;;;6.70;5.53;;;32.00;99.90;;;;;;4974097;28;20101;-56
2023/08/22 00:49:20;;;;;;;6.97;5.25;;;31.90;99.90;;;;;;4973900;28;20050;-57
2023/08/22 00:51:45;;;;;;;5.88;5.30;;;31.90;99.90;;;;;;4973800;28;20090;-56
2023/08/22 00:54:13;;;;;;;6.07;5.38;;;31.90;99.90;;;;;;4973822;28;20027;-56
2023/08/22 00:56:39;;;;;;;;;;;31.90;99.90;;;;;;4972915;28;20129;-55
2023/08/22 00:59:05;;;;;;;6.20;5.60;;;31.90;99.90;;;;;;4973732;28;20406;-55
2023/08/22 01:01:31;;;;;;;5.93;5.32;;;31.90;99.90;;;;;;4974086;28;20078;-55
2023/08/22 01:03:57;;;;;;;6.55;5.28;;;31.90;99.90;;;;;;4973755;28;20487;-55
2023/08/22 01:06:32;;;;;;;6.20;5.60;;;31.90;99.90;;;;;;4973803;28;20073;-55
2023/08/22 01:09:08;;;;;;;6.10;4.97;;;31.90;99.90;;;;;;4973589;28;20053;-56
2023/08/22 01:11:44;;;;;;;6.75;4.93;;;31.90;99.90;;;;;;4973548;28;20027;-55
2023/08/22 01:14:13;;;;;;;6.13;5.53;;;31.90;99.90;;;;;;4973399;28;20467;-55
2023/08/22 01:16:40;;;;;;;5.63;5.03;;;31.90;99.90;;;;;;4973555;28;20498;-55
2023/08/22 01:19:07;;;;;;;7.65;6.18;;;31.90;99.90;;;;;;4973546;28;20038;-56
2023/08/22 01:21:35;;;;;;;6.57;5.80;;;31.90;99.90;;;;;;4973462;28;20509;-55
2023/08/22 01:24:04;;;;;;;7.72;6.10;;;31.80;99.90;;;;;;4973234;28;20102;-55
2023/08/22 01:26:30;;;;;;;7.90;6.82;;;31.80;99.90;;;;;;4973502;28;20062;-56
2023/08/22 01:29:05;;;;;;;9.82;7.43;;;31.80;99.90;;;;;;4973620;28;20063;-56
2023/08/22 01:32:16;;;;;;;7.45;6.55;;;31.80;99.90;;;;;;4973383;28;20037;-55
2023/08/22 01:34:42;;;;;;;7.60;6.72;;;31.80;99.90;;;;;;4976760;28;20042;-55
2023/08/22 01:37:11;;;;;;;10.05;7.75;;;31.80;99.90;;;;;;4973404;28;20031;-56
2023/08/22 01:39:39;;;;;;;9.25;7.75;;;31.80;99.90;;;;;;4973254;28;20027;-56
2023/08/22 01:42:05;;;;;;;9.02;7.65;;;31.80;99.90;;;;;;4973265;28;20034;-55
2023/08/22 01:44:31;;;;;;;9.33;7.80;;;31.80;99.90;;;;;;4973313;28;20487;-55
2023/08/22 01:46:57;;;;;;;9.30;8.07;;;31.80;99.90;;;;;;4973353;28;20037;-55
2023/08/22 01:49:23;;;;;;;8.77;7.72;;;31.80;99.90;;;;;;4973158;28;20101;-55
2023/08/22 01:51:48;;;;;;;8.80;7.90;;;31.80;99.90;;;;;;4973076;28;20600;-55
2023/08/22 01:54:14;;;;;;;10.18;8.65;;;31.80;99.90;;;;;;4973213;28;20026;-55
2023/08/22 01:56:40;;;;;;;10.85;8.60;;;31.80;99.90;;;;;;4973226;28;20487;-56
2023/08/22 01:59:06;;;;;;;11.02;9.20;;;31.80;99.90;;;;;;4973207;28;20489;-55
2023/08/22 02:01:31;;;;;;;10.55;8.88;;;31.80;99.90;;;;;;4973510;28;20059;-55
2023/08/22 02:04:03;;;;;;;10.50;8.85;;;31.80;99.90;;;;;;4973199;28;20019;-55
2023/08/22 02:06:29;;;;;;;9.55;8.55;;;31.80;99.90;;;;;;4973449;28;20041;-55
2023/08/22 02:08:55;;;;;;;10.48;9.10;;;31.80;99.90;;;;;;4973334;28;20019;-55
2023/08/22 02:11:21;;;;;;;10.07;9.00;;;31.70;99.90;;;;;;4973102;28;20058;-55
2023/08/22 02:13:47;;;;;;;10.25;9.15;;;31.80;99.90;;;;;;4973072;28;20046;-55
2023/08/22 02:16:12;;;;;;;10.85;9.50;;;31.80;99.90;;;;;;4972904;28;20356;-55
2023/08/22 02:18:38;;;;;;;10.32;8.90;;;31.80;99.90;;;;;;4972980;28;20031;-55
2023/08/22 02:21:04;;;;;;;11.20;8.77;;;31.80;99.90;;;;;;4987992;28;20029;-55
2023/08/22 02:23:32;;;;;;;9.77;8.75;;;31.70;99.90;;;;;;4973124;28;20109;-55
2023/08/22 02:25:58;;;;;;;10.63;8.25;;;31.70;99.90;;;;;;4976089;28;20038;-55
2023/08/22 02:28:24;;;;;;;9.63;8.32;;;31.70;99.90;;;;;;4976224;28;20023;-55
2023/08/22 02:30:59;;;;;;;10.35;8.60;;;31.70;99.90;;;;;;4974916;28;20029;-56
2023/08/22 02:33:24;;;;;;;9.43;8.32;;;31.70;99.90;;;;;;4976347;28;20015;-55
2023/08/22 02:35:50;;;;;;;9.13;7.90;;;31.70;99.90;;;;;;4976318;28;20027;-55
2023/08/22 02:38:16;;;;;;;8.82;7.93;;;31.70;99.90;;;;;;4976174;28;20498;-55
2023/08/22 02:40:42;;;;;;;9.73;8.43;;;31.70;99.90;;;;;;4976184;28;20049;-55
2023/08/22 02:43:08;;;;;;;9.48;8.18;;;31.70;99.90;;;;;;4976243;28;20026;-56
2023/08/22 02:45:34;;;;;;;9.32;8.20;;;31.70;99.90;;;;;;4976125;28;20059;-55
2023/08/22 02:48:00;;;;;;;9.15;7.93;;;31.70;99.90;;;;;;4975304;28;20369;-56
2023/08/22 02:50:26;;;;;;;7.75;6.82;;;31.70;99.90;;;;;;4975844;28;20074;-55
2023/08/22 02:52:52;;;;;;;8.70;7.30;;;31.70;99.90;;;;;;4975921;28;20038;-55
2023/08/22 02:55:18;;;;;;;8.07;7.28;;;31.70;99.90;;;;;;4975898;28;20031;-55
2023/08/22 02:57:44;;;;;;;9.88;8.02;;;31.70;99.90;;;;;;4975830;28;20022;-55
2023/08/22 03:00:14;;;;;;;8.60;6.93;;;31.70;99.90;;;;;;4976489;28;20033;-56
2023/08/22 03:02:40;;;;;;;10.57;7.85;;;31.60;99.90;;;;;;4975592;28;20053;-56
2023/08/22 03:05:11;;;;;;;8.13;7.20;;;31.60;99.90;;;;;;4975660;28;20027;-56
2023/08/22 03:07:37;;;;;;;8.00;7.18;;;31.60;99.90;;;;;;4975617;28;20038;-56
2023/08/22 03:10:03;;;;;;;8.38;7.25;;;31.60;99.90;;;;;;4975669;28;20035;-56
2023/08/22 03:12:29;;;;;;;8.93;7.15;;;31.60;99.90;;;;;;4975896;28;20065;-56
2023/08/22 03:14:54;;;;;;;7.45;6.75;;;31.60;99.90;;;;;;4975559;28;20054;-56
2023/08/22 03:17:20;;;;;;;7.22;6.53;;;31.60;99.90;;;;;;4975518;28;20022;-56
2023/08/22 03:19:46;;;;;;;8.73;6.85;;;31.60;99.90;;;;;;4974072;28;20027;-56
2023/08/22 03:22:12;;;;;;;7.78;6.97;;;31.60;99.90;;;;;;4975354;28;20062;-55
2023/08/22 03:24:37;;;;;;;9.05;7.93;;;31.60;99.90;;;;;;4975275;28;20109;-55
2023/08/22 03:27:04;;;;;;;10.07;7.25;;;31.60;99.90;;;;;;4975483;28;20112;-56
2023/08/22 03:29:29;;;;;;;10.00;7.00;;;31.60;99.90;;;;;;4975561;28;20090;-55
2023/08/22 03:31:57;;;;;;;8.45;6.75;;;31.50;99.90;;;;;;4975190;28;20699;-55
2023/08/22 03:34:23;;;;;;;8.52;6.88;;;31.60;99.90;;;;;;4975474;28;20378;-55
2023/08/22 03:36:49;;;;;;;8.35;6.60;;;31.60;99.90;;;;;;4975130;28;20098;-55
2023/08/22 03:39:14;;;;;;;8.27;6.25;;;31.60;99.90;;;;;;4989968;28;20365;-55
2023/08/22 03:41:40;;;;;;;10.10;6.65;;;31.50;99.90;;;;;;4975257;28;20026;-55
2023/08/22 03:44:06;;;;;;;7.15;6.40;;;31.60;99.90;;;;;;4975088;28;20046;-55
2023/08/22 03:46:32;;;;;;;7.07;6.38;;;31.50;99.90;;;;;;4975101;28;20034;-55
2023/08/22 03:48:57;;;;;;;7.50;6.13;;;31.60;99.90;;;;;;4973648;28;20073;-55
2023/08/22 03:51:23;;;;;;;7.32;6.20;;;31.50;99.90;;;;;;4974848;28;20023;-55
2023/08/22 03:53:49;;;;;;;8.95;6.75;;;31.50;99.90;;;;;;4974802;28;20102;-55
2023/08/22 03:56:15;;;;;;;7.50;5.97;;;31.50;99.90;;;;;;4974691;28;20061;-56
2023/08/22 03:58:41;;;;;;;6.32;5.47;;;31.60;99.90;;;;;;4974702;28;20483;-55
2023/08/22 04:01:07;;;;;;;6.85;6.00;;;31.50;99.90;;;;;;4975022;28;20062;-56
2023/08/22 04:03:32;;;;;;;15.98;6.07;;;31.50;99.90;;;;;;4974834;28;20023;-55
2023/08/22 04:05:59;;;;;;;7.22;6.50;;;31.50;99.90;;;;;;4973313;28;20070;-55
2023/08/22 04:08:25;;;;;;;7.77;6.20;;;31.50;99.90;;;;;;4974522;28;20015;-55
2023/08/22 04:10:54;;;;;;;7.28;5.90;;;31.50;99.90;;;;;;4974376;28;20031;-55
2023/08/22 04:13:20;;;;;;;6.10;5.50;;;31.50;99.90;;;;;;4974370;28;20031;-55
2023/08/22 04:15:45;;;;;;;6.15;5.55;;;31.50;99.90;;;;;;4974336;28;20463;-55
2023/08/22 04:18:11;;;;;;;5.75;5.10;;;31.50;99.90;;;;;;4974460;28;20019;-56
2023/08/22 04:20:37;;;;;;;6.63;5.43;;;31.50;99.90;;;;;;4989359;28;20027;-55
2023/08/22 04:23:03;;;;;;;7.85;6.07;;;31.50;99.90;;;;;;4974470;28;20030;-55
2023/08/22 04:25:29;;;;;;;7.40;5.43;;;31.40;99.90;;;;;;4974221;28;20046;-55
2023/08/22 04:27:54;;;;;;;13.48;6.18;;;31.40;99.90;;;;;;4974141;28;20023;-56
2023/08/22 04:30:20;;;;;;;6.57;5.63;;;31.40;99.90;;;;;;4989130;28;20035;-56
2023/08/22 04:32:46;;;;;;;6.20;5.60;;;31.40;99.90;;;;;;4974125;28;20031;-55
2023/08/22 04:35:12;;;;;;;7.10;5.90;;;31.40;99.90;;;;;;4973980;28;20030;-56
2023/08/22 04:37:38;;;;;;;6.25;5.25;;;31.40;99.90;;;;;;4974012;28;20034;-56
2023/08/22 04:40:04;;;;;;;5.93;5.18;;;31.40;99.90;;;;;;4974148;28;20034;-56
2023/08/22 04:42:30;;;;;;;6.93;5.18;;;31.40;99.90;;;;;;4974010;28;20034;-56
2023/08/22 04:44:56;;;;;;;8.82;5.30;;;31.40;99.90;;;;;;4973838;28;20047;-56
2023/08/22 04:47:21;;;;;;;6.68;5.38;;;31.40;99.90;;;;;;4973384;28;20019;-55
2023/08/22 04:49:47;;;;;;;8.63;5.32;;;31.40;99.90;;;;;;4973882;28;20023;-56
2023/08/22 04:52:13;;;;;;;6.45;5.82;;;31.40;99.90;;;;;;4972464;28;20027;-56
2023/08/22 04:54:39;;;;;;;7.47;5.55;;;31.40;99.90;;;;;;4973798;28;20023;-55
2023/08/22 04:57:05;;;;;;;5.97;5.30;;;31.40;99.90;;;;;;4974004;28;20023;-55
2023/08/22 04:59:31;;;;;;;7.53;5.47;;;31.40;99.90;;;;;;4973664;28;20031;-55
2023/08/22 05:01:56;;;;;;;6.60;5.53;;;31.30;99.90;;;;;;4973533;28;20392;-55
2023/08/22 05:04:22;;;;;;;6.95;5.68;;;31.40;99.90;;;;;;4973543;28;20082;-55
2023/08/22 05:06:48;;;;;;;8.20;5.88;;;31.40;99.90;;;;;;4973560;28;20098;-57
2023/08/22 05:09:14;;;;;;;6.55;5.32;;;31.30;99.90;;;;;;4973506;28;20023;-56
2023/08/22 05:11:40;;;;;;;8.15;5.18;;;31.30;99.90;;;;;;4973540;28;20030;-56
2023/08/22 05:14:07;;;;;;;6.57;4.88;;;31.30;99.90;;;;;;4973776;28;20023;-56
2023/08/22 05:16:33;;;;;;;7.35;4.95;;;31.30;99.90;;;;;;4973493;28;20019;-56
2023/08/22 05:18:59;;;;;;;6.22;5.03;;;31.30;99.90;;;;;;4973554;28;20038;-56
2023/08/22 05:21:25;;;;;;;5.55;4.90;;;31.30;99.90;;;;;;4973399;28;20098;-56
2023/08/22 05:23:51;;;;;;;5.80;5.05;;;31.30;99.90;;;;;;4973358;28;20023;-56
2023/08/22 05:26:17;;;;;;;5.75;4.80;;;31.30;99.90;;;;;;4973330;28;20117;-56
2023/08/22 05:28:43;;;;;;;7.72;5.38;;;31.30;99.90;;;;;;4973297;28;20027;-56
2023/08/22 05:31:09;;;;;;;7.32;5.40;;;31.30;99.90;;;;;;4972229;28;20035;-56
2023/08/22 05:33:34;;;;;;;7.85;5.03;;;31.30;99.90;;;;;;4973394;28;20027;-56
2023/08/22 05:36:00;;;;;;;7.38;5.30;;;31.30;99.90;;;;;;4973330;28;20054;-56
2023/08/22 05:38:26;;;;;;;6.43;4.80;;;31.30;99.90;;;;;;4973384;28;20039;-56
2023/08/22 05:40:52;;;;;;;6.90;4.68;;;31.30;99.90;;;;;;4973208;28;20037;-56
2023/08/22 05:43:18;;;;;;;11.73;6.85;;;31.30;99.90;;;;;;4973235;28;20023;-55
2023/08/22 05:45:43;;;;;;;6.68;4.85;;;31.30;99.90;;;;;;4973167;28;20468;-55
2023/08/22 05:48:09;;;;;;;8.35;4.95;;;31.20;99.90;;;;;;4973408;28;20042;-55
2023/08/22 05:50:35;;;;;;;6.22;4.95;;;31.30;99.90;;;;;;4973161;28;20035;-56
2023/08/22 05:53:00;;;;;;;5.28;4.57;;;31.20;99.90;;;;;;4973037;28;20033;-55
2023/08/22 05:55:26;;;;;;;6.28;4.45;;;31.30;99.90;;;;;;4971792;28;20059;-55
2023/08/22 05:57:52;;;;;;;6.38;5.38;;;31.20;99.90;;;;;;4973168;28;20031;-55
2023/08/22 06:00:18;;;;;;;6.05;4.72;;;31.20;99.90;;;;;;4975175;28;20030;-56
2023/08/22 06:02:44;;;;;;;8.60;5.32;;;31.20;99.90;;;;;;4976682;28;20042;-55
2023/08/22 06:05:09;;;;;;;6.78;4.40;;;31.20;99.90;;;;;;4976836;28;20065;-55
2023/08/22 06:07:35;;;;;;;7.55;5.60;;;31.20;99.90;;;;;;4976871;28;20054;-56
2023/08/22 06:10:01;;;;;;;6.97;5.32;;;31.20;99.90;;;;;;4976729;28;20027;-55
2023/08/22 06:12:27;;;;;;;7.55;4.63;;;31.20;99.90;;;;;;4976653;28;20023;-56
2023/08/22 06:14:52;;;;;;;6.10;4.95;;;31.20;99.90;;;;;;4976672;28;20030;-55
2023/08/22 06:17:18;;;;;;;5.72;4.43;;;31.20;99.90;;;;;;4976652;28;20031;-55
2023/08/22 06:19:48;;;;;;;9.82;4.90;;;31.20;99.90;;;;;;4976477;28;20018;-55
2023/08/22 06:22:14;;;;;;;7.85;4.72;;;31.20;99.90;;;;;;4991409;28;20480;-56
2023/08/22 06:24:39;;;;;;;6.53;4.80;;;31.20;99.90;;;;;;4976682;28;20113;-56
2023/08/22 06:27:05;;;;;;;7.07;4.68;;;31.20;99.90;;;;;;4976425;28;20027;-56
2023/08/22 06:29:32;;;;;;;5.85;4.72;;;31.20;99.90;;;;;;4976414;28;20073;-56
2023/08/22 06:32:00;;;;;;;5.82;4.70;;;31.20;99.90;;;;;;4976383;28;20035;-55
2023/08/22 06:34:26;;;;;;;6.55;5.10;;;31.20;99.90;;;;;;4976198;28;20023;-56
2023/08/22 06:36:52;;;;;;;5.95;4.68;;;31.20;99.90;;;;;;4976220;28;20058;-56
2023/08/22 06:39:19;;;;;;;7.15;4.85;;;31.20;99.90;;;;;;4976229;28;20047;-56
2023/08/22 06:41:45;;;;;;;;;;;31.20;99.90;;;;;;4976575;28;20495;-56
2023/08/22 06:44:11;;;;;;;7.75;5.00;;;31.20;99.90;;;;;;4976370;28;19941;-56
2023/08/22 06:46:37;;;;;;;7.18;4.60;;;31.20;99.90;;;;;;4976046;28;20035;-56
2023/08/22 06:49:03;;;;;;;5.68;3.88;;;31.20;99.90;;;;;;4975984;28;20102;-56
2023/08/22 06:51:29;;;;;;;6.60;4.53;;;31.20;99.90;;;;;;4974777;28;20513;-55
2023/08/22 06:53:55;;;;;;;6.65;4.68;;;31.20;99.90;;;;;;4975875;28;20031;-56
2023/08/22 06:56:20;;;;;;;7.97;4.75;;;31.20;99.90;;;;;;4975835;28;20033;-56
2023/08/22 06:58:46;;;;;;;8.13;4.38;;;31.20;99.90;;;;;;4975782;28;20031;-55
2023/08/22 07:01:13;;;;;;;4.80;4.10;;;31.20;99.90;;;;;;4975794;28;20038;-55
2023/08/22 07:03:39;;;;;;;7.05;4.95;;;31.20;99.90;;;;;;4975642;28;20499;-55
2023/08/22 07:06:05;;;;;;;10.40;4.82;;;31.20;99.90;;;;;;4975659;28;20042;-55
2023/08/22 07:08:31;;;;;;;6.50;4.55;;;31.20;99.90;;;;;;4975684;28;20081;-56
2023/08/22 07:11:02;;;;;;;5.95;4.20;;;31.20;99.90;;;;;;4975408;28;20027;-56
2023/08/22 07:13:28;;;;;;;7.30;4.40;;;31.20;99.90;;;;;;4975533;28;20533;-56
2023/08/22 07:15:54;;;;;;;7.80;4.55;;;31.30;99.90;;;;;;4975418;28;20038;-55
2023/08/22 07:18:20;;;;;;;7.47;4.38;;;31.30;99.90;;;;;;4975527;28;20035;-56
2023/08/22 07:20:46;;;;;;;6.70;4.85;;;31.20;99.90;;;;;;4975352;28;20023;-56
2023/08/22 07:23:12;;;;;;;6.80;4.63;;;31.20;99.90;;;;;;4975518;28;20117;-56
2023/08/22 07:25:40;;;;;;;6.60;4.70;;;31.30;99.90;;;;;;4990205;28;20479;-56
2023/08/22 07:28:05;;;;;;;7.03;4.43;;;31.30;99.90;;;;;;4973874;28;20030;-57
2023/08/22 07:30:34;;;;;;;7.20;4.47;;;31.30;99.90;;;;;;4975146;28;20023;-56
2023/08/22 07:33:00;;;;;;;6.97;4.30;;;31.30;99.90;;;;;;4974933;28;20026;-56
2023/08/22 07:35:27;;;;;;;7.38;4.18;;;31.30;99.90;;;;;;4975170;28;20033;-56
2023/08/22 07:37:53;;;;;;;6.55;4.65;;;31.30;99.90;;;;;;4975062;28;20110;-56
2023/08/22 07:40:19;;;;;;;7.05;4.65;;;31.30;99.90;;;;;;4975144;28;20543;-57
2023/08/22 07:42:44;;;;;;;5.82;4.30;;;31.30;99.90;;;;;;4975191;28;20037;-55
2023/08/22 07:45:10;;;;;;;5.60;4.78;;;31.30;99.90;;;;;;4974672;28;20031;-56
2023/08/22 07:47:36;;;;;;;7.28;4.30;;;31.30;99.90;;;;;;4974905;28;20031;-56
2023/08/22 07:50:03;;;;;;;6.57;4.97;;;31.30;99.90;;;;;;4974854;28;20034;-56
2023/08/22 07:52:30;;;;;;;6.80;4.88;;;31.30;99.90;;;;;;4974904;28;20019;-56
2023/08/22 07:54:56;;;;;;;7.90;5.80;;;31.30;99.90;;;;;;4975110;28;20444;-55
2023/08/22 07:57:22;;;;;;;8.20;5.80;;;31.30;99.90;;;;;;4974668;28;20114;-55
2023/08/22 07:59:47;;;;;;;5.07;4.35;;;31.40;99.90;;;;;;4974822;28;20027;-56
2023/08/22 08:02:13;;;;;;;6.85;4.38;;;31.40;99.90;;;;;;4974794;28;20054;-56
2023/08/22 08:04:39;;;;;;;6.78;4.55;;;31.30;99.90;;;;;;4974489;28;20038;-56
2023/08/22 08:07:05;;;;;;;6.18;5.25;;;31.40;99.90;;;;;;4974552;28;20070;-55
2023/08/22 08:09:32;;;;;;;7.47;5.28;;;31.40;99.90;;;;;;4974556;28;20077;-55
2023/08/22 08:11:58;;;;;;;7.95;5.00;;;31.40;99.90;;;;;;4974382;28;20463;-56
2023/08/22 08:14:24;;;;;;;9.68;5.13;;;31.40;99.90;;;;;;4974407;28;20098;-56
2023/08/22 08:16:49;;;;;;;6.80;4.28;;;31.40;99.90;;;;;;4974393;28;20038;-55
2023/08/22 08:19:15;;;;;;;7.85;5.18;;;31.40;99.90;;;;;;4974559;28;20027;-55
2023/08/22 08:21:42;;;;;;;8.73;6.00;;;31.40;99.90;;;;;;4973853;28;20022;-55
2023/08/22 08:24:08;;;;;;;6.93;5.05;;;31.40;99.90;;;;;;4974042;28;20372;-56
2023/08/22 08:26:34;;;;;;;5.95;4.25;;;31.40;99.90;;;;;;4974059;28;20030;-56
2023/08/22 08:29:00;;;;;;;7.68;5.25;;;31.40;99.90;;;;;;4973871;28;20027;-55
2023/08/22 08:31:25;;;;;;;9.48;5.30;;;31.40;99.90;;;;;;4974010;28;20034;-55
2023/08/22 08:33:51;;;;;;;6.22;4.32;;;31.40;99.90;;;;;;4973904;28;20439;-55
2023/08/22 08:36:17;;;;;;;5.90;4.50;;;31.40;99.90;;;;;;4974044;28;20483;-55
2023/08/22 08:38:43;;;;;;;7.47;4.88;;;31.40;99.90;;;;;;4973956;28;20026;-55
2023/08/22 08:41:10;;;;;;;5.57;4.50;;;31.40;99.90;;;;;;4973896;28;20535;-56
2023/08/22 08:43:36;;;;;;;9.82;5.63;;;31.40;99.90;;;;;;4973898;28;20066;-55
2023/08/22 08:46:06;;;;;;;8.13;5.05;;;31.40;99.90;;;;;;4972449;28;20101;-56
2023/08/22 08:48:32;;;;;;;8.02;4.40;;;31.40;99.90;;;;;;4973890;28;20077;-56
2023/08/22 08:51:01;;;;;;;7.17;4.43;;;31.40;99.90;;;;;;4973779;28;20026;-56
2023/08/22 08:53:29;;;;;;;7.45;4.82;;;31.40;99.90;;;;;;4973730;28;20335;-56
2023/08/22 08:55:55;;;;;;;5.93;4.40;;;31.40;99.90;;;;;;4973727;28;20073;-55
2023/08/22 08:58:22;;;;;;;8.63;4.93;;;31.40;99.90;;;;;;4973713;28;20054;-56
2023/08/22 09:00:49;;;;;;;7.90;4.78;;;31.40;99.90;;;;;;4972614;28;20027;-56
2023/08/22 09:03:15;;;;;;;8.82;4.68;;;31.50;99.90;;;;;;4973434;28;20045;-56
2023/08/22 09:05:40;;;;;;;10.25;5.70;;;31.50;99.90;;;;;;4972248;28;20039;-56
2023/08/22 09:08:19;;;;;;;6.40;5.00;;;31.40;99.90;;;;;;4973558;28;20022;-56
2023/08/22 09:10:53;;;;;;;6.75;5.22;;;31.40;99.90;;;;;;4988696;28;20041;-55
2023/08/22 09:13:29;;;;;;;6.75;5.13;;;31.40;99.90;;;;;;4973658;28;20546;-55
2023/08/22 09:15:59;;;;;;;8.68;4.95;;;31.50;99.90;;;;;;4973320;28;20037;-55
2023/08/22 09:18:26;;;;;;;6.78;5.13;;;31.50;99.90;;;;;;4973276;28;20027;-55
2023/08/22 09:20:52;;;;;;;7.60;5.07;;;31.50;99.90;;;;;;4973706;28;20502;-55
2023/08/22 09:23:28;;;;;;;6.03;4.90;;;31.50;99.90;;;;;;4973709;28;20030;-55
2023/08/22 09:25:55;;;;;;;6.30;5.57;;;31.50;99.90;;;;;;4973322;28;20089;-54
2023/08/22 09:28:21;;;;;;;7.63;5.30;;;31.50;99.90;;;;;;4973492;28;20257;-55
2023/08/22 09:30:50;;;;;;;8.25;5.10;;;31.40;99.90;;;;;;4973449;28;20595;-55
2023/08/22 09:33:17;;;;;;;7.97;5.00;;;31.50;99.90;;;;;;4972522;28;20411;-56
2023/08/22 09:35:44;;;;;;;8.07;5.85;;;31.50;99.90;;;;;;4975790;28;20034;-55
2023/08/22 09:38:10;;;;;;;9.23;5.95;;;31.50;99.90;;;;;;4977188;28;20082;-55
2023/08/22 09:40:54;;;;;;;7.13;5.25;;;31.50;99.90;;;;;;4977123;28;20435;-55
2023/08/22 09:43:21;;;;;;;6.25;4.55;;;31.50;99.90;;;;;;4977331;28;20027;-55
2023/08/22 09:45:50;;;;;;;7.78;5.50;;;31.50;99.90;;;;;;4976996;28;20050;-55
2023/08/22 09:48:23;;;;;;;9.63;5.50;;;31.50;99.90;;;;;;4976983;28;20126;-55
2023/08/22 09:50:53;;;;;;;7.13;5.70;;;31.60;99.90;;;;;;4977199;28;20022;-55
2023/08/22 09:53:21;;;;;;;6.32;4.75;;;31.50;99.90;;;;;;4977008;28;20019;-55
2023/08/22 09:55:48;;;;;;;5.20;4.70;;;31.50;99.90;;;;;;4976923;28;20034;-55
2023/08/22 09:58:15;;;;;;;7.40;5.53;;;31.50;99.90;;;;;;4976944;28;20318;-55
2023/08/22 10:00:41;;;;;;;;;;;31.60;99.90;;;;;;4977273;28;20037;-56
2023/08/22 10:03:07;;;;;;;7.03;5.55;;;31.50;99.90;;;;;;4976504;28;19917;-55
2023/08/22 10:05:33;;;;;;;5.68;4.88;;;31.60;99.90;;;;;;4976588;28;20463;-55
2023/08/22 10:07:59;;;;;;;8.73;5.50;;;31.60;99.90;;;;;;4976735;28;20023;-56
2023/08/22 10:10:26;;;;;;;8.55;5.65;;;31.60;99.90;;;;;;4976607;28;20027;-55
2023/08/22 10:12:54;;;;;;;7.65;5.55;;;31.60;99.90;;;;;;4976767;28;20105;-55
2023/08/22 10:15:20;;;;;;;8.13;5.80;;;31.60;99.90;;;;;;4991590;28;20110;-55
2023/08/22 10:17:45;;;;;;;8.30;5.97;;;31.60;99.90;;;;;;4976545;28;20113;-55
2023/08/22 10:20:12;;;;;;;7.30;5.45;;;31.60;99.90;;;;;;4976512;28;20026;-55
2023/08/22 10:22:38;;;;;;;6.60;5.35;;;31.60;99.90;;;;;;4976443;28;20074;-55
2023/08/22 10:25:06;;;;;;;9.68;6.10;;;31.60;99.90;;;;;;4976326;28;20031;-55
2023/08/22 10:27:33;;;;;;;8.40;6.18;;;31.70;99.90;;;;;;4976096;28;20388;-55
2023/08/22 10:30:18;;;;;;;7.22;5.32;;;31.70;99.90;;;;;;4974960;28;20023;-55
2023/08/22 10:33:03;;;;;;;8.15;5.65;;;31.70;99.90;;;;;;4976169;28;20023;-55
2023/08/22 10:35:29;;;;;;;8.20;6.03;;;31.70;99.90;;;;;;4974697;28;20023;-55
2023/08/22 10:37:56;;;;;;;6.63;5.53;;;31.70;99.90;;;;;;4976427;28;20078;-54
2023/08/22 10:40:30;;;;;;;6.05;5.25;;;31.70;99.90;;;;;;4976508;28;20022;-55
2023/08/22 10:43:07;;;;;;;7.32;5.63;;;31.70;99.90;;;;;;4974826;28;20031;-55
2023/08/22 10:45:41;;;;;;;8.20;5.65;;;31.70;99.90;;;;;;4975267;28;20039;-55
2023/08/22 10:48:11;;;;;;;7.18;4.80;;;31.70;99.90;;;;;;4975977;28;20423;-55
2023/08/22 10:50:41;;;;;;;7.50;5.57;;;31.70;99.90;;;;;;4975933;28;20069;-55
2023/08/22 10:53:24;;;;;;;7.07;5.80;;;31.80;99.90;;;;;;4975909;28;20019;-55
2023/08/22 10:55:51;;;;;;;10.60;6.13;;;31.80;99.90;;;;;;4975990;28;20050;-55
2023/08/22 10:58:36;;;;;;;7.68;6.03;;;31.80;99.90;;;;;;4974657;28;20031;-55
2023/08/22 11:01:08;;;;;;;7.97;5.30;;;31.80;99.90;;;;;;4975537;28;20027;-55
2023/08/22 11:03:34;;;;;;;7.85;5.13;;;31.80;99.90;;;;;;4974449;28;20031;-55
2023/08/22 11:06:01;;;;;;;6.55;4.72;;;31.80;99.90;;;;;;4975643;28;20057;-56
2023/08/22 11:08:26;;;;;;;5.38;4.82;;;31.80;99.90;;;;;;4975799;28;20533;-55
2023/08/22 11:10:53;;;;;;;6.43;5.38;;;31.80;99.90;;;;;;4975469;28;20035;-55
2023/08/22 11:13:19;;;;;;;6.90;5.40;;;31.80;99.90;;;;;;4975524;28;21144;-55
2023/08/22 11:15:49;;;;;;;7.95;5.13;;;31.80;99.90;;;;;;4974172;28;20269;-55
2023/08/22 11:18:15;;;;;;;8.38;5.63;;;31.90;99.90;;;;;;4974263;28;20022;-55
2023/08/22 11:20:42;;;;;;;8.48;5.40;;;31.90;99.90;;;;;;4975391;28;20031;-55
2023/08/22 11:23:08;;;;;;;7.88;5.35;;;31.90;99.90;;;;;;4975396;28;20023;-55
2023/08/22 11:25:36;;;;;;;6.28;5.10;;;31.90;99.90;;;;;;4975215;28;20047;-55
2023/08/22 11:28:03;;;;;;;7.15;4.95;;;31.90;99.90;;;;;;4975149;28;20030;-55
2023/08/22 11:30:29;;;;;;;6.72;5.05;;;31.90;99.90;;;;;;4974136;28;20042;-56
2023/08/22 11:32:55;;;;;;;7.97;5.43;;;31.90;99.90;;;;;;4975482;28;20364;-55
2023/08/22 11:35:21;;;;;;;5.80;5.20;;;32.00;99.90;;;;;;4975194;28;20088;-55
2023/08/22 11:37:46;;;;;;;6.15;4.85;;;32.00;99.90;;;;;;4975229;28;20077;-55
2023/08/22 11:40:14;;;;;;;7.80;5.50;;;32.00;99.90;;;;;;4975040;28;20039;-55
2023/08/22 11:42:41;;;;;;;5.88;4.32;;;32.00;99.90;;;;;;4974883;28;20539;-55
2023/08/22 11:45:08;;;;;;;6.90;4.78;;;32.00;99.90;;;;;;4989699;28;20035;-55
2023/08/22 11:47:39;;;;;;;8.00;5.90;;;32.00;99.90;;;;;;4989983;28;20078;-55
2023/08/22 11:50:06;;;;;;;7.13;4.93;;;32.00;99.90;;;;;;4974852;28;20018;-55
2023/08/22 11:52:32;;;;;;;6.82;5.55;;;32.10;99.90;;;;;;4973544;28;20054;-55
2023/08/22 11:55:06;;;;;;;10.90;4.90;;;32.10;99.90;;;;;;4974900;28;20031;-55
2023/08/22 11:57:34;;;;;;;9.35;4.95;;;32.10;99.90;;;;;;4973652;28;20023;-55
2023/08/22 12:00:03;;;;;;;7.63;4.80;;;32.10;99.90;;;;;;4974803;28;20029;-55
2023/08/22 12:02:29;;;;;;;7.38;4.65;;;32.10;99.90;;;;;;4974660;28;20058;-55
2023/08/22 12:04:55;;;;;;;7.97;4.70;;;32.10;99.90;;;;;;4974469;28;20391;-55
2023/08/22 12:07:22;;;;;;;9.37;5.50;;;32.10;99.90;;;;;;4974607;28;20109;-55
2023/08/22 12:09:57;;;;;;;;;;;32.10;99.90;;;;;;4975002;28;20027;-55
2023/08/22 12:12:23;;;;;;;6.25;5.22;;;32.20;99.90;;;;;;4974507;28;19993;-55
2023/08/22 12:14:49;;;;;;;7.20;5.22;;;32.10;99.90;;;;;;4973035;28;20122;-55
2023/08/22 12:17:14;;;;;;;6.22;4.65;;;32.20;99.90;;;;;;4974287;28;20098;-56
2023/08/22 12:19:43;;;;;;;9.95;5.40;;;32.20;99.90;;;;;;4974348;28;20058;-55
2023/08/22 12:22:09;;;;;;;8.63;5.50;;;32.20;99.90;;;;;;4974125;28;20106;-55
2023/08/22 12:24:34;;;;;;;7.43;5.68;;;32.20;99.90;;;;;;4974193;28;20105;-55
2023/08/22 12:27:00;;;;;;;7.50;5.72;;;32.20;99.90;;;;;;4974215;28;20443;-55
2023/08/22 12:29:26;;;;;;;6.65;5.15;;;32.20;99.90;;;;;;4974100;28;20510;-55
2023/08/22 12:31:52;;;;;;;6.95;5.53;;;32.20;99.90;;;;;;4973994;28;20038;-55
2023/08/22 12:34:17;;;;;;;6.68;5.07;;;32.20;99.90;;;;;;4974045;28;20033;-55
2023/08/22 12:36:43;;;;;;;11.65;6.22;;;32.30;99.90;;;;;;4974121;28;20065;-55
2023/08/22 12:39:10;;;;;;;11.43;5.60;;;32.30;99.90;;;;;;4973914;28;20380;-55
2023/08/22 12:41:36;;;;;;;;;;;32.30;99.90;;;;;;4974387;28;20089;-55
2023/08/22 12:44:02;;;;;;;8.30;4.70;;;32.30;99.90;;;;;;4974083;28;19913;-55
2023/08/22 12:46:28;;;;;;;6.82;4.97;;;32.30;99.90;;;;;;4974001;28;20395;-55